createdAt,value
2017-08-17T00:00:17.080Z,11.03
2017-08-17T00:02:44.706Z,11.83
2017-08-17T00:05:12.253Z,10.73
2017-08-17T00:07:40.849Z,9.57
2017-08-17T00:10:08.429Z,9.10
2017-08-17T00:12:35.978Z,10.87
2017-08-17T00:15:03.525Z,10.23
2017-08-17T00:17:31.134Z,9.83
2017-08-17T00:19:58.675Z,10.63
2017-08-17T00:22:26.216Z,10.43
2017-08-17T00:24:53.809Z,9.17
2017-08-17T00:27:21.349Z,14.00
2017-08-17T00:29:48.888Z,10.40
2017-08-17T00:32:16.448Z,9.97
2017-08-17T00:34:43.984Z,9.73
2017-08-17T00:37:11.520Z,12.30
2017-08-17T00:39:39.089Z,11.60
2017-08-17T00:42:06.629Z,15.03
2017-08-17T00:44:34.173Z,12.00
2017-08-17T00:47:01.768Z,13.97
2017-08-17T00:49:29.317Z,12.90
2017-08-17T00:51:56.867Z,14.23
2017-08-17T00:54:24.432Z,16.33
2017-08-17T00:56:51.976Z,19.50
2017-08-17T00:59:19.522Z,22.47
2017-08-17T01:01:47.093Z,13.90
2017-08-17T01:04:14.641Z,12.43
2017-08-17T01:06:42.182Z,13.23
2017-08-17T01:09:10.105Z,13.23
2017-08-17T01:11:37.648Z,13.00
2017-08-17T01:14:05.193Z,12.03
2017-08-17T01:16:32.770Z,20.57
2017-08-17T01:19:00.309Z,16.53
2017-08-17T01:21:27.867Z,15.20
2017-08-17T01:23:55.461Z,14.63
2017-08-17T01:26:23.014Z,12.70
2017-08-17T01:28:50.560Z,12.97
2017-08-17T01:31:18.164Z,14.23
2017-08-17T01:33:46.477Z,12.47
2017-08-17T01:36:14.020Z,10.90
2017-08-17T01:38:41.593Z,14.33
2017-08-17T01:41:09.136Z,13.20
2017-08-17T01:43:36.681Z,11.27
2017-08-17T01:46:05.030Z,11.83
2017-08-17T01:48:32.568Z,17.03
2017-08-17T01:51:00.122Z,13.47
2017-08-17T01:53:27.803Z,13.83
2017-08-17T01:55:55.341Z,15.87
2017-08-17T01:58:22.892Z,13.37
2017-08-17T02:00:50.465Z,15.70
2017-08-17T02:03:18.014Z,14.03
2017-08-17T02:05:45.556Z,16.13
2017-08-17T02:08:13.120Z,13.97
2017-08-17T02:10:41.972Z,18.77
2017-08-17T02:13:09.512Z,16.10
2017-08-17T02:15:37.104Z,18.27
2017-08-17T02:18:04.708Z,16.10
2017-08-17T02:20:32.248Z,14.73
2017-08-17T02:22:59.825Z,14.63
2017-08-17T02:25:27.360Z,16.53
2017-08-17T02:27:54.899Z,19.30
2017-08-17T02:30:22.497Z,17.10
2017-08-17T02:32:50.044Z,16.93
2017-08-17T02:35:17.607Z,13.03
2017-08-17T02:37:45.200Z,14.47
2017-08-17T02:40:12.759Z,22.10
2017-08-17T02:42:40.292Z,22.47
2017-08-17T02:45:07.874Z,15.83
2017-08-17T02:47:35.420Z,15.07
2017-08-17T02:50:02.964Z,16.00
2017-08-17T02:52:31.306Z,20.87
2017-08-17T02:54:58.857Z,25.30
2017-08-17T02:57:26.397Z,20.17
2017-08-17T02:59:54.013Z,22.97
2017-08-17T03:02:22.326Z,24.50
2017-08-17T03:04:49.869Z,21.50
2017-08-17T03:07:17.449Z,24.93
2017-08-17T03:09:44.992Z,20.00
2017-08-17T03:12:12.963Z,28.30
2017-08-17T03:14:40.561Z,27.23
2017-08-17T03:17:08.105Z,22.40
2017-08-17T03:19:35.644Z,17.40
2017-08-17T03:22:03.241Z,15.33
2017-08-17T03:24:30.784Z,22.20
2017-08-17T03:26:58.333Z,22.60
2017-08-17T03:29:25.909Z,24.20
2017-08-17T03:31:53.452Z,25.70
2017-08-17T03:34:20.997Z,25.57
2017-08-17T03:36:48.592Z,24.33
2017-08-17T03:39:16.135Z,24.53
2017-08-17T03:41:43.683Z,22.67
2017-08-17T03:44:11.285Z,26.03
2017-08-17T03:46:38.831Z,32.43
2017-08-17T03:49:06.373Z,30.67
2017-08-17T03:51:33.945Z,25.40
2017-08-17T03:54:01.488Z,24.77
2017-08-17T03:56:29.041Z,26.83
2017-08-17T03:58:56.610Z,25.13
2017-08-17T04:01:24.157Z,23.40
2017-08-17T04:03:51.705Z,16.20
2017-08-17T04:06:19.337Z,22.90
2017-08-17T04:08:46.876Z,20.10
2017-08-17T04:11:14.422Z,18.00
2017-08-17T04:13:42.617Z,17.83
2017-08-17T04:16:10.154Z,20.93
2017-08-17T04:18:37.701Z,18.00
2017-08-17T04:21:05.272Z,19.47
2017-08-17T04:23:32.809Z,17.40
2017-08-17T04:26:00.349Z,17.73
2017-08-17T04:28:27.955Z,19.33
2017-08-17T04:30:55.512Z,23.30
2017-08-17T04:33:23.066Z,18.37
2017-08-17T04:35:50.636Z,18.00
2017-08-17T04:38:18.177Z,21.23
2017-08-17T04:40:45.732Z,28.07
2017-08-17T04:43:13.349Z,18.30
2017-08-17T04:45:40.902Z,19.93
2017-08-17T04:48:08.453Z,19.73
2017-08-17T04:50:36.048Z,18.67
2017-08-17T04:53:04.361Z,19.90
2017-08-17T04:55:31.909Z,18.33
2017-08-17T04:58:12.819Z,16.37
2017-08-17T05:00:40.367Z,18.00
2017-08-17T05:03:07.910Z,30.33
2017-08-17T05:05:35.487Z,15.87
2017-08-17T05:08:03.034Z,16.27
2017-08-17T05:10:30.582Z,20.30
2017-08-17T05:12:58.168Z,14.70
2017-08-17T05:15:26.213Z,19.63
2017-08-17T05:17:53.765Z,17.50
2017-08-17T05:20:22.103Z,16.43
2017-08-17T05:22:49.645Z,17.23
2017-08-17T05:25:17.190Z,18.07
2017-08-17T05:27:44.761Z,16.67
2017-08-17T05:30:12.315Z,18.10
2017-08-17T05:32:39.865Z,17.77
2017-08-17T05:35:07.531Z,16.40
2017-08-17T05:37:35.077Z,15.20
2017-08-17T05:40:02.621Z,16.10
2017-08-17T05:42:30.193Z,18.90
2017-08-17T05:44:57.941Z,23.10
2017-08-17T05:47:26.249Z,26.43
2017-08-17T05:49:54.077Z,16.60
2017-08-17T05:52:22.392Z,20.23
2017-08-17T05:54:49.928Z,19.33
2017-08-17T05:57:18.445Z,19.10
2017-08-17T05:59:45.988Z,17.70
2017-08-17T06:02:13.534Z,17.33
2017-08-17T06:04:41.108Z,20.90
2017-08-17T06:07:08.662Z,18.40
2017-08-17T06:09:36.209Z,17.73
2017-08-17T06:12:04.544Z,17.00
2017-08-17T06:14:32.089Z,21.80
2017-08-17T06:17:00.021Z,15.77
2017-08-17T06:19:27.629Z,19.07
2017-08-17T06:21:55.171Z,19.80
2017-08-17T06:24:22.725Z,14.67
2017-08-17T06:26:50.292Z,15.27
2017-08-17T06:29:17.833Z,11.80
2017-08-17T06:31:45.365Z,13.43
2017-08-17T06:34:12.941Z,10.60
2017-08-17T06:36:40.488Z,16.37
2017-08-17T06:39:08.024Z,9.60
2017-08-17T06:41:35.656Z,10.40
2017-08-17T06:44:03.189Z,8.63
2017-08-17T06:46:30.732Z,10.83
2017-08-17T06:48:58.312Z,8.03
2017-08-17T06:51:25.858Z,8.00
2017-08-17T06:53:53.396Z,8.17
2017-08-17T06:56:20.988Z,8.57
2017-08-17T06:58:48.532Z,7.83
2017-08-17T07:01:16.067Z,8.07
2017-08-17T07:03:43.652Z,7.90
2017-08-17T07:06:11.961Z,7.50
2017-08-17T07:08:39.500Z,7.23
2017-08-17T07:11:07.098Z,7.30
2017-08-17T07:13:34.669Z,6.37
2017-08-17T07:16:02.224Z,9.33
2017-08-17T07:18:30.489Z,7.43
2017-08-17T07:20:58.049Z,9.13
2017-08-17T07:23:25.606Z,5.40
2017-08-17T07:25:53.217Z,6.10
2017-08-17T07:28:21.549Z,5.60
2017-08-17T07:30:49.105Z,5.13
2017-08-17T07:33:16.694Z,5.80
2017-08-17T07:35:44.242Z,6.50
2017-08-17T07:38:13.385Z,5.70
2017-08-17T07:40:41.006Z,6.60
2017-08-17T07:43:08.604Z,5.30
2017-08-17T07:45:36.150Z,12.30
2017-08-17T07:48:03.748Z,5.30
2017-08-17T07:50:31.285Z,5.27
2017-08-17T07:52:59.076Z,4.67
2017-08-17T07:55:26.651Z,11.20
2017-08-17T07:57:54.193Z,4.90
2017-08-17T08:00:21.789Z,5.23
2017-08-17T08:02:49.401Z,8.53
2017-08-17T08:05:16.985Z,5.23
2017-08-17T08:07:44.525Z,5.00
2017-08-17T08:10:12.125Z,4.70
2017-08-17T08:12:39.676Z,5.33
2017-08-17T08:15:07.238Z,11.50
2017-08-17T08:17:34.834Z,5.10
2017-08-17T08:20:02.380Z,10.40
2017-08-17T08:22:29.925Z,14.20
2017-08-17T08:24:57.513Z,11.20
2017-08-17T08:27:25.056Z,9.97
2017-08-17T08:29:52.597Z,5.83
2017-08-17T08:32:20.200Z,9.93
2017-08-17T08:34:47.737Z,5.33
2017-08-17T08:37:15.277Z,5.93
2017-08-17T08:39:42.837Z,5.40
2017-08-17T08:42:10.383Z,5.20
2017-08-17T08:44:37.929Z,10.40
2017-08-17T08:47:05.510Z,4.50
2017-08-17T08:49:33.063Z,7.00
2017-08-17T08:52:00.609Z,6.00
2017-08-17T08:54:28.237Z,5.03
2017-08-17T08:56:55.790Z,7.93
2017-08-17T08:59:23.325Z,5.80
2017-08-17T09:01:50.893Z,9.93
2017-08-17T09:04:18.454Z,12.83
2017-08-17T09:06:46.005Z,6.10
2017-08-17T09:09:13.614Z,10.63
2017-08-17T09:11:41.169Z,7.10
2017-08-17T09:14:08.714Z,8.13
2017-08-17T09:16:36.381Z,5.73
2017-08-17T09:19:03.946Z,5.83
2017-08-17T09:21:32.412Z,5.20
2017-08-17T09:23:59.985Z,6.33
2017-08-17T09:26:27.530Z,5.33
2017-08-17T09:28:55.178Z,11.23
2017-08-17T09:31:22.750Z,4.03
2017-08-17T09:33:50.374Z,6.93
2017-08-17T09:36:17.910Z,9.13
2017-08-17T09:38:45.537Z,6.03
2017-08-17T09:41:13.118Z,7.00
2017-08-17T09:43:40.661Z,8.53
2017-08-17T09:46:08.245Z,7.20
2017-08-17T09:48:35.785Z,4.00
2017-08-17T09:51:03.333Z,4.40
2017-08-17T09:53:30.898Z,9.17
2017-08-17T09:55:58.449Z,3.80
2017-08-17T09:58:25.993Z,4.23
2017-08-17T10:00:53.594Z,3.80
2017-08-17T10:03:21.132Z,8.17
2017-08-17T10:05:48.668Z,8.30
2017-08-17T10:08:16.297Z,7.70
2017-08-17T10:10:43.844Z,11.83
2017-08-17T10:13:11.381Z,5.67
2017-08-17T10:15:39.751Z,8.70
2017-08-17T10:18:07.285Z,5.70
2017-08-17T10:20:34.830Z,5.77
2017-08-17T10:23:02.738Z,7.77
2017-08-17T10:25:30.274Z,9.30
2017-08-17T10:27:57.815Z,9.27
2017-08-17T10:30:25.386Z,9.10
2017-08-17T10:32:53.682Z,10.73
2017-08-17T10:35:21.225Z,11.30
2017-08-17T10:37:48.805Z,8.70
2017-08-17T10:40:16.350Z,9.13
2017-08-17T10:42:43.909Z,8.87
2017-08-17T10:45:11.495Z,8.93
2017-08-17T10:47:39.036Z,9.67
2017-08-17T10:50:06.576Z,8.40
2017-08-17T10:52:34.141Z,7.30
2017-08-17T10:55:01.680Z,6.87
2017-08-17T10:57:29.225Z,10.50
2017-08-17T10:59:56.784Z,13.93
2017-08-17T11:02:24.328Z,7.23
2017-08-17T11:04:51.866Z,9.87
2017-08-17T11:07:19.500Z,10.20
2017-08-17T11:09:47.036Z,6.77
2017-08-17T11:12:14.581Z,8.37
2017-08-17T11:14:42.165Z,6.93
2017-08-17T11:17:09.713Z,12.30
2017-08-17T11:19:37.253Z,7.80
2017-08-17T11:22:04.854Z,6.73
2017-08-17T11:24:32.926Z,12.07
2017-08-17T11:27:00.505Z,8.90
2017-08-17T11:29:28.135Z,8.70
2017-08-17T11:31:55.668Z,8.57
2017-08-17T11:34:23.237Z,8.90
2017-08-17T11:36:50.796Z,6.47
2017-08-17T11:39:19.098Z,6.50
2017-08-17T11:41:46.647Z,8.23
2017-08-17T11:44:14.272Z,6.73
2017-08-17T11:46:41.854Z,10.20
2017-08-17T11:49:09.429Z,11.20
2017-08-17T11:51:37.077Z,10.90
2017-08-17T11:54:04.629Z,9.83
2017-08-17T11:56:32.169Z,8.47
2017-08-17T11:58:59.744Z,9.60
2017-08-17T12:01:27.295Z,10.93
2017-08-17T12:03:54.847Z,12.57
2017-08-17T12:06:22.409Z,8.43
2017-08-17T12:08:49.950Z,11.67
2017-08-17T12:11:17.497Z,12.37
2017-08-17T12:13:45.097Z,11.63
2017-08-17T12:16:12.660Z,17.60
2017-08-17T12:18:40.204Z,14.60
2017-08-17T12:21:07.766Z,12.10
2017-08-17T12:23:35.395Z,11.30
2017-08-17T12:26:03.365Z,10.50
2017-08-17T12:28:30.973Z,13.23
2017-08-17T12:30:58.518Z,8.53
2017-08-17T12:33:26.056Z,8.47
2017-08-17T12:35:53.669Z,14.87
2017-08-17T12:38:21.345Z,11.80
2017-08-17T12:40:48.893Z,10.47
2017-08-17T12:43:16.521Z,7.63
2017-08-17T12:45:44.128Z,16.83
2017-08-17T12:48:11.668Z,10.70
2017-08-17T12:50:40.009Z,23.43
2017-08-17T12:53:07.542Z,9.40
2017-08-17T12:55:35.084Z,10.67
2017-08-17T12:58:02.688Z,11.70
2017-08-17T13:00:30.229Z,9.17
2017-08-17T13:02:57.802Z,12.40
2017-08-17T13:05:25.370Z,7.63
2017-08-17T13:07:52.909Z,10.63
2017-08-17T13:10:20.526Z,7.90
2017-08-17T13:12:48.142Z,11.50
2017-08-17T13:15:15.687Z,12.13
2017-08-17T13:17:43.228Z,11.40
2017-08-17T13:20:10.823Z,9.50
2017-08-17T13:22:38.372Z,12.20
2017-08-17T13:25:05.909Z,8.20
2017-08-17T13:27:33.765Z,7.90
2017-08-17T13:30:01.456Z,7.40
2017-08-17T13:32:29.083Z,9.67
2017-08-17T13:34:56.706Z,14.97
2017-08-17T13:37:24.253Z,17.47
2017-08-17T13:39:51.821Z,14.93
2017-08-17T13:42:19.412Z,10.93
2017-08-17T13:44:47.716Z,9.87
2017-08-17T13:47:15.355Z,11.03
2017-08-17T13:49:42.927Z,9.37
2017-08-17T13:52:10.460Z,7.90
2017-08-17T13:54:37.996Z,11.80
2017-08-17T13:57:05.561Z,11.63
2017-08-17T13:59:33.105Z,8.53
2017-08-17T14:02:00.644Z,9.33
2017-08-17T14:04:28.244Z,7.30
2017-08-17T14:06:55.785Z,16.50
2017-08-17T14:09:23.681Z,7.30
2017-08-17T14:11:51.246Z,7.40
2017-08-17T14:14:18.784Z,8.23
2017-08-17T14:16:46.324Z,8.30
2017-08-17T14:19:13.910Z,10.10
2017-08-17T14:21:41.448Z,7.50
2017-08-17T14:24:08.987Z,9.07
2017-08-17T14:26:36.650Z,12.00
2017-08-17T14:29:04.704Z,14.00
2017-08-17T14:31:32.253Z,8.83
2017-08-17T14:34:00.580Z,11.00
2017-08-17T14:36:28.132Z,12.53
2017-08-17T14:38:55.673Z,8.37
2017-08-17T14:41:23.281Z,13.17
2017-08-17T14:43:50.984Z,9.20
2017-08-17T14:46:18.520Z,8.30
2017-08-17T14:48:46.849Z,10.03
2017-08-17T14:51:14.389Z,15.87
2017-08-17T14:53:41.939Z,53.97
2017-08-17T14:56:09.496Z,8.90
2017-08-17T14:58:37.068Z,59.43
2017-08-17T15:01:04.631Z,9.60
2017-08-17T15:03:32.211Z,37.30
2017-08-17T15:05:59.752Z,13.87
2017-08-17T15:08:27.348Z,11.13
2017-08-17T15:10:54.940Z,9.20
2017-08-17T15:13:22.481Z,10.13
2017-08-17T15:15:50.018Z,8.57
2017-08-17T15:18:17.585Z,9.03
2017-08-17T15:20:45.120Z,16.37
2017-08-17T15:23:12.874Z,9.10
2017-08-17T15:25:40.469Z,11.87
2017-08-17T15:28:08.017Z,11.60
2017-08-17T15:30:36.149Z,7.87
2017-08-17T15:33:04.544Z,7.80
2017-08-17T15:35:32.096Z,10.73
2017-08-17T15:37:59.641Z,14.33
2017-08-17T15:40:27.221Z,18.90
2017-08-17T15:42:54.765Z,10.23
2017-08-17T15:45:22.310Z,17.83
2017-08-17T15:47:49.937Z,28.47
2017-08-17T15:50:17.487Z,14.53
2017-08-17T15:52:45.034Z,6.97
2017-08-17T15:55:12.648Z,13.90
2017-08-17T15:57:40.209Z,11.10
2017-08-17T16:00:07.740Z,6.77
2017-08-17T16:02:35.311Z,9.20
2017-08-17T16:05:02.885Z,8.10
2017-08-17T16:07:30.420Z,9.77
2017-08-17T16:09:57.984Z,9.00
2017-08-17T16:12:25.528Z,11.57
2017-08-17T16:14:53.083Z,11.07
2017-08-17T16:17:20.677Z,9.80
2017-08-17T16:19:48.221Z,13.13
2017-08-17T16:22:15.771Z,11.50
2017-08-17T16:24:43.333Z,7.90
2017-08-17T16:27:10.888Z,8.90
2017-08-17T16:29:38.428Z,10.40
2017-08-17T16:32:06.505Z,11.47
2017-08-17T16:34:34.053Z,13.30
2017-08-17T16:37:01.601Z,13.33
2017-08-17T16:39:29.205Z,9.40
2017-08-17T16:41:56.749Z,10.83
2017-08-17T16:44:24.329Z,26.30
2017-08-17T16:46:51.900Z,11.83
2017-08-17T16:49:19.450Z,13.20
2017-08-17T16:51:47.011Z,11.20
2017-08-17T16:54:14.638Z,12.90
2017-08-17T16:56:42.180Z,16.93
2017-08-17T16:59:09.730Z,13.53
2017-08-17T17:01:37.366Z,12.43
2017-08-17T17:04:04.917Z,13.50
2017-08-17T17:06:32.461Z,15.00
2017-08-17T17:09:00.056Z,12.53
2017-08-17T17:11:27.600Z,11.30
2017-08-17T17:13:55.145Z,11.67
2017-08-17T17:16:23.473Z,11.07
2017-08-17T17:18:51.027Z,12.13
2017-08-17T17:21:18.580Z,15.03
2017-08-17T17:23:46.177Z,16.40
2017-08-17T17:26:13.741Z,19.20
2017-08-17T17:28:41.287Z,16.13
2017-08-17T17:31:08.865Z,13.60
2017-08-17T17:33:37.030Z,10.63
2017-08-17T17:36:04.580Z,12.90
2017-08-17T17:38:32.158Z,12.20
2017-08-17T17:40:59.812Z,14.63
2017-08-17T17:43:27.372Z,14.50
2017-08-17T17:45:54.968Z,12.53
2017-08-17T17:48:22.516Z,23.87
2017-08-17T17:50:50.061Z,15.23
2017-08-17T17:53:19.758Z,11.37
2017-08-17T17:55:47.307Z,11.53
2017-08-17T17:58:14.854Z,12.47
2017-08-17T18:00:42.479Z,20.93
2017-08-17T18:03:39.007Z,16.87
2017-08-17T18:06:06.617Z,17.77
2017-08-17T18:08:34.162Z,12.87
2017-08-17T18:11:01.709Z,13.80
2017-08-17T18:13:29.304Z,15.30
2017-08-17T18:15:56.861Z,13.47
2017-08-17T18:18:24.421Z,26.13
2017-08-17T18:20:52.006Z,12.80
2017-08-17T18:23:19.557Z,18.87
2017-08-17T18:25:47.104Z,12.93
2017-08-17T18:28:16.493Z,19.27
2017-08-17T18:30:44.056Z,11.80
2017-08-17T18:33:11.605Z,19.00
2017-08-17T18:35:39.641Z,18.43
2017-08-17T18:38:07.201Z,13.47
2017-08-17T18:40:34.749Z,12.40
2017-08-17T18:43:02.345Z,19.23
2017-08-17T18:45:29.902Z,15.23
2017-08-17T18:47:57.644Z,14.13
2017-08-17T18:50:25.577Z,17.37
2017-08-17T18:52:53.119Z,17.20
2017-08-17T18:55:20.665Z,18.03
2017-08-17T18:57:48.249Z,21.47
2017-08-17T19:00:16.641Z,20.10
2017-08-17T19:02:44.210Z,16.57
2017-08-17T19:05:11.817Z,19.70
2017-08-17T19:07:39.374Z,17.90
2017-08-17T19:10:06.925Z,18.60
2017-08-17T19:12:50.409Z,25.23
2017-08-17T19:15:17.982Z,19.90
2017-08-17T19:17:45.541Z,20.13
2017-08-17T19:20:14.868Z,20.45
2017-08-17T19:22:42.422Z,21.90
2017-08-17T19:25:09.983Z,26.07
2017-08-17T19:27:37.558Z,25.73
2017-08-17T19:30:05.232Z,25.27
2017-08-17T19:32:32.825Z,28.35
2017-08-17T19:35:00.449Z,22.00
2017-08-17T19:37:28.417Z,26.97
2017-08-17T19:39:55.974Z,25.63
2017-08-17T19:42:23.568Z,24.30
2017-08-17T19:44:51.150Z,27.20
2017-08-17T19:47:18.697Z,22.83
2017-08-17T19:49:47.036Z,22.50
2017-08-17T19:52:15.574Z,26.30
2017-08-17T19:54:43.129Z,20.43
2017-08-17T19:57:10.756Z,20.43
2017-08-17T19:59:38.312Z,25.93
2017-08-17T20:02:05.878Z,24.60
2017-08-17T20:04:33.457Z,19.55
2017-08-17T20:07:01.022Z,17.00
2017-08-17T20:09:28.581Z,19.60
2017-08-17T20:11:56.962Z,22.90
2017-08-17T20:14:25.300Z,18.50
2017-08-17T20:16:54.380Z,22.17
2017-08-17T20:19:21.993Z,18.50
2017-08-17T20:21:49.585Z,19.67
2017-08-17T20:24:19.125Z,25.85
2017-08-17T20:26:46.722Z,22.30
2017-08-17T20:29:26.365Z,26.33
2017-08-17T20:34:48.085Z,28.17
2017-08-17T20:37:17.266Z,23.55
2017-08-17T20:39:45.309Z,25.23
2017-08-17T20:42:14.593Z,21.83
2017-08-17T20:44:44.837Z,21.83
2017-08-17T20:47:12.410Z,27.43
2017-08-17T20:49:44.774Z,26.83
2017-08-17T20:52:13.255Z,34.63
2017-08-17T20:54:41.582Z,21.30
2017-08-17T20:57:09.149Z,26.50
2017-08-17T20:59:36.702Z,20.23
2017-08-17T21:02:04.288Z,17.77
2017-08-17T21:04:31.841Z,23.53
2017-08-17T21:06:59.402Z,27.00
2017-08-17T21:09:27.753Z,24.90
2017-08-17T21:11:57.970Z,23.63
2017-08-17T21:14:25.525Z,17.87
2017-08-17T21:17:09.236Z,25.07
2017-08-17T21:19:36.866Z,18.87
2017-08-17T21:22:06.973Z,18.65
2017-08-17T21:24:35.141Z,20.42
2017-08-17T21:27:03.370Z,27.67
2017-08-17T21:29:34.153Z,21.55
2017-08-17T21:32:02.510Z,23.70
2017-08-17T21:34:30.085Z,20.63
2017-08-17T21:37:05.658Z,20.37
2017-08-17T21:39:33.212Z,17.95
2017-08-17T21:42:02.126Z,20.50
2017-08-17T21:44:29.705Z,22.08
2017-08-17T21:46:57.263Z,15.93
2017-08-17T21:49:24.817Z,17.03
2017-08-17T21:51:52.414Z,21.00
2017-08-17T21:54:19.982Z,15.93
2017-08-17T21:56:47.540Z,15.53
2017-08-17T21:59:16.540Z,15.70
2017-08-17T22:01:44.110Z,18.00
2017-08-17T22:04:11.672Z,19.60
2017-08-17T22:06:39.253Z,17.00
2017-08-17T22:09:06.822Z,20.70
2017-08-17T22:11:34.381Z,20.83
2017-08-17T22:14:01.968Z,18.47
2017-08-17T22:16:29.532Z,22.83
2017-08-17T22:18:57.100Z,16.30
2017-08-17T22:21:24.773Z,19.10
2017-08-17T22:23:52.342Z,16.40
2017-08-17T22:26:19.913Z,15.98
2017-08-17T22:28:47.522Z,18.70
2017-08-17T22:31:16.491Z,21.48
2017-08-17T22:33:44.037Z,15.07
2017-08-17T22:36:12.385Z,17.67
2017-08-17T22:38:39.932Z,18.53
2017-08-17T22:41:07.759Z,17.33
2017-08-17T22:43:35.692Z,20.23
2017-08-17T22:46:03.245Z,16.80
2017-08-17T22:48:30.800Z,19.47
2017-08-17T22:50:58.381Z,21.47
2017-08-17T22:53:26.705Z,20.83
2017-08-17T22:55:54.261Z,22.10
2017-08-17T22:58:21.858Z,17.53
2017-08-17T23:00:49.441Z,17.97
2017-08-17T23:03:17.769Z,19.20
2017-08-17T23:05:45.540Z,25.23
2017-08-17T23:08:25.189Z,15.80
2017-08-17T23:13:32.537Z,17.90
2017-08-17T23:16:00.857Z,19.40
2017-08-17T23:18:28.412Z,21.30
2017-08-17T23:20:56.182Z,18.03
2017-08-17T23:23:23.735Z,19.73
2017-08-17T23:25:51.289Z,18.90
2017-08-17T23:28:18.903Z,18.43
2017-08-17T23:30:46.453Z,16.52
2017-08-17T23:33:25.279Z,17.45
2017-08-17T23:38:51.240Z,18.60
2017-08-17T23:41:18.790Z,20.60
2017-08-17T23:43:46.760Z,18.47
2017-08-17T23:46:26.205Z,21.33
2017-08-17T23:54:38.806Z,20.67
2017-08-17T23:57:06.368Z,19.80
2017-08-17T23:59:33.934Z,25.73
